sensor_id;sensor_type;location;lat;lon;timestamp;P1;durP1;ratioP1;P2;durP2;ratioP2
44842;SDS011;31884;52.538;13.820;2024-01-15T00:02:08;15.45;;;8.77;;
44842;SDS011;31884;52.538;13.820;2024-01-15T00:04:38;12.55;;;7.63;;
44842;SDS011;31884;52.538;13.820;2024-01-15T00:07:05;17.75;;;9.15;;
44842;SDS011;31884;52.538;13.820;2024-01-15T00:09:31;13.27;;;8.40;;
44842;SDS011;31884;52.538;13.820;2024-01-15T00:11:57;15.75;;;8.27;;
44842;SDS011;31884;52.538;13.820;2024-01-15T00:14:22;12.88;;;8.35;;
44842;SDS011;31884;52.538;13.820;2024-01-15T00:16:48;14.20;;;8.15;;
44842;SDS011;31884;52.538;13.820;2024-01-15T00:19:16;15.35;;;8.82;;
44842;SDS011;31884;52.538;13.820;2024-01-15T00:21:41;13.93;;;8.63;;
44842;SDS011;31884;52.538;13.820;2024-01-15T00:24:07;13.32;;;8.57;;
44842;SDS011;31884;52.538;13.820;2024-01-15T00:26:33;13.55;;;8.20;;
44842;SDS011;31884;52.538;13.820;2024-01-15T00:28:58;14.73;;;7.75;;
44842;SDS011;31884;52.538;13.820;2024-01-15T00:31:24;14.73;;;8.13;;
44842;SDS011;31884;52.538;13.820;2024-01-15T00:33:49;14.45;;;8.40;;
44842;SDS011;31884;52.538;13.820;2024-01-15T00:36:15;14.73;;;8.07;;
44842;SDS011;31884;52.538;13.820;2024-01-15T00:38:41;11.98;;;7.45;;
44842;SDS011;31884;52.538;13.820;2024-01-15T00:41:07;14.65;;;8.13;;
44842;SDS011;31884;52.538;13.820;2024-01-15T00:43:32;13.43;;;8.07;;
44842;SDS011;31884;52.538;13.820;2024-01-15T00:45:58;21.20;;;9.70;;
44842;SDS011;31884;52.538;13.820;2024-01-15T00:48:27;12.38;;;7.78;;
44842;SDS011;31884;52.538;13.820;2024-01-15T00:50:53;13.35;;;8.52;;
44842;SDS011;31884;52.538;13.820;2024-01-15T00:53:19;15.85;;;8.85;;
44842;SDS011;31884;52.538;13.820;2024-01-15T00:55:47;15.93;;;9.20;;
44842;SDS011;31884;52.538;13.820;2024-01-15T00:58:12;14.13;;;7.95;;
44842;SDS011;31884;52.538;13.820;2024-01-15T01:00:38;15.13;;;8.48;;
44842;SDS011;31884;52.538;13.820;2024-01-15T01:03:04;19.63;;;9.77;;
44842;SDS011;31884;52.538;13.820;2024-01-15T01:05:29;20.27;;;9.57;;
44842;SDS011;31884;52.538;13.820;2024-01-15T01:07:55;16.05;;;8.82;;
44842;SDS011;31884;52.538;13.820;2024-01-15T01:10:20;14.05;;;8.63;;
44842;SDS011;31884;52.538;13.820;2024-01-15T01:12:46;16.67;;;9.38;;
44842;SDS011;31884;52.538;13.820;2024-01-15T01:15:11;15.70;;;9.30;;
44842;SDS011;31884;52.538;13.820;2024-01-15T01:17:36;15.55;;;7.60;;
44842;SDS011;31884;52.538;13.820;2024-01-15T01:20:02;13.43;;;7.97;;
44842;SDS011;31884;52.538;13.820;2024-01-15T01:22:31;15.25;;;8.15;;
44842;SDS011;31884;52.538;13.820;2024-01-15T01:24:56;19.30;;;10.00;;
44842;SDS011;31884;52.538;13.820;2024-01-15T01:27:22;18.25;;;8.45;;
44842;SDS011;31884;52.538;13.820;2024-01-15T01:29:47;14.55;;;9.07;;
44842;SDS011;31884;52.538;13.820;2024-01-15T01:32:13;16.17;;;8.18;;
44842;SDS011;31884;52.538;13.820;2024-01-15T01:34:41;14.43;;;8.93;;
44842;SDS011;31884;52.538;13.820;2024-01-15T01:37:10;17.83;;;8.95;;
44842;SDS011;31884;52.538;13.820;2024-01-15T01:39:39;15.48;;;8.63;;
44842;SDS011;31884;52.538;13.820;2024-01-15T01:42:05;16.95;;;8.93;;
44842;SDS011;31884;52.538;13.820;2024-01-15T01:44:31;17.00;;;8.45;;
44842;SDS011;31884;52.538;13.820;2024-01-15T01:46:57;15.68;;;8.45;;
44842;SDS011;31884;52.538;13.820;2024-01-15T01:49:24;17.25;;;9.27;;
44842;SDS011;31884;52.538;13.820;2024-01-15T01:51:51;18.52;;;9.77;;
44842;SDS011;31884;52.538;13.820;2024-01-15T01:54:16;19.80;;;9.73;;
44842;SDS011;31884;52.538;13.820;2024-01-15T01:56:43;14.48;;;7.50;;
44842;SDS011;31884;52.538;13.820;2024-01-15T01:59:10;16.17;;;8.57;;
44842;SDS011;31884;52.538;13.820;2024-01-15T02:01:36;12.02;;;7.38;;
44842;SDS011;31884;52.538;13.820;2024-01-15T02:04:03;14.30;;;8.50;;
44842;SDS011;31884;52.538;13.820;2024-01-15T02:06:29;16.05;;;8.73;;
44842;SDS011;31884;52.538;13.820;2024-01-15T02:08:55;14.35;;;7.20;;
44842;SDS011;31884;52.538;13.820;2024-01-15T02:11:20;14.38;;;8.38;;
44842;SDS011;31884;52.538;13.820;2024-01-15T02:13:46;15.45;;;7.65;;
44842;SDS011;31884;52.538;13.820;2024-01-15T02:16:11;14.10;;;8.05;;
44842;SDS011;31884;52.538;13.820;2024-01-15T02:18:43;14.52;;;7.55;;
44842;SDS011;31884;52.538;13.820;2024-01-15T02:21:10;15.27;;;7.88;;
44842;SDS011;31884;52.538;13.820;2024-01-15T02:23:36;16.35;;;8.32;;
44842;SDS011;31884;52.538;13.820;2024-01-15T02:26:02;12.50;;;7.18;;
44842;SDS011;31884;52.538;13.820;2024-01-15T02:28:29;10.55;;;6.75;;
44842;SDS011;31884;52.538;13.820;2024-01-15T02:30:55;12.68;;;6.65;;
44842;SDS011;31884;52.538;13.820;2024-01-15T02:33:20;13.77;;;6.97;;
44842;SDS011;31884;52.538;13.820;2024-01-15T02:35:46;11.50;;;6.80;;
44842;SDS011;31884;52.538;13.820;2024-01-15T02:38:14;12.32;;;6.95;;
44842;SDS011;31884;52.538;13.820;2024-01-15T02:40:40;12.20;;;6.45;;
44842;SDS011;31884;52.538;13.820;2024-01-15T02:43:06;14.07;;;7.03;;
44842;SDS011;31884;52.538;13.820;2024-01-15T02:45:31;14.02;;;7.78;;
44842;SDS011;31884;52.538;13.820;2024-01-15T02:47:57;16.60;;;8.35;;
44842;SDS011;31884;52.538;13.820;2024-01-15T02:50:22;15.68;;;7.80;;
44842;SDS011;31884;52.538;13.820;2024-01-15T02:52:48;18.88;;;8.20;;
44842;SDS011;31884;52.538;13.820;2024-01-15T02:55:13;17.08;;;7.38;;
44842;SDS011;31884;52.538;13.820;2024-01-15T02:57:39;13.90;;;8.00;;
44842;SDS011;31884;52.538;13.820;2024-01-15T03:00:05;11.23;;;6.88;;
44842;SDS011;31884;52.538;13.820;2024-01-15T03:02:32;11.88;;;6.45;;
44842;SDS011;31884;52.538;13.820;2024-01-15T03:04:57;13.77;;;6.13;;
44842;SDS011;31884;52.538;13.820;2024-01-15T03:07:23;13.25;;;6.55;;
44842;SDS011;31884;52.538;13.820;2024-01-15T03:09:49;12.02;;;6.47;;
44842;SDS011;31884;52.538;13.820;2024-01-15T03:12:14;16.20;;;6.20;;
44842;SDS011;31884;52.538;13.820;2024-01-15T03:14:40;15.75;;;6.38;;
44842;SDS011;31884;52.538;13.820;2024-01-15T03:17:06;14.27;;;6.43;;
44842;SDS011;31884;52.538;13.820;2024-01-15T03:19:34;15.18;;;7.25;;
44842;SDS011;31884;52.538;13.820;2024-01-15T03:22:00;15.65;;;7.22;;
44842;SDS011;31884;52.538;13.820;2024-01-15T03:24:27;17.60;;;7.80;;
44842;SDS011;31884;52.538;13.820;2024-01-15T03:26:53;10.52;;;6.60;;
44842;SDS011;31884;52.538;13.820;2024-01-15T03:29:18;15.68;;;7.32;;
44842;SDS011;31884;52.538;13.820;2024-01-15T03:31:44;12.48;;;6.50;;
44842;SDS011;31884;52.538;13.820;2024-01-15T03:34:09;11.90;;;6.22;;
44842;SDS011;31884;52.538;13.820;2024-01-15T03:36:35;12.40;;;6.38;;
44842;SDS011;31884;52.538;13.820;2024-01-15T03:39:00;13.57;;;6.07;;
44842;SDS011;31884;52.538;13.820;2024-01-15T03:41:26;14.07;;;7.07;;
44842;SDS011;31884;52.538;13.820;2024-01-15T03:43:51;13.50;;;6.53;;
44842;SDS011;31884;52.538;13.820;2024-01-15T03:46:17;22.77;;;7.63;;
44842;SDS011;31884;52.538;13.820;2024-01-15T03:48:42;13.63;;;6.00;;
44842;SDS011;31884;52.538;13.820;2024-01-15T03:51:08;13.25;;;6.97;;
44842;SDS011;31884;52.538;13.820;2024-01-15T03:53:33;15.20;;;6.13;;
44842;SDS011;31884;52.538;13.820;2024-01-15T03:55:58;12.30;;;6.50;;
44842;SDS011;31884;52.538;13.820;2024-01-15T03:58:24;12.30;;;6.10;;
44842;SDS011;31884;52.538;13.820;2024-01-15T04:00:49;13.23;;;5.80;;
44842;SDS011;31884;52.538;13.820;2024-01-15T04:03:15;11.25;;;6.15;;
44842;SDS011;31884;52.538;13.820;2024-01-15T04:05:40;14.88;;;7.40;;
44842;SDS011;31884;52.538;13.820;2024-01-15T04:08:06;12.45;;;5.90;;
44842;SDS011;31884;52.538;13.820;2024-01-15T04:10:31;16.35;;;6.85;;
44842;SDS011;31884;52.538;13.820;2024-01-15T04:12:57;12.05;;;6.05;;
44842;SDS011;31884;52.538;13.820;2024-01-15T04:15:24;16.25;;;5.78;;
44842;SDS011;31884;52.538;13.820;2024-01-15T04:17:50;14.50;;;6.93;;
44842;SDS011;31884;52.538;13.820;2024-01-15T04:20:15;10.05;;;5.80;;
44842;SDS011;31884;52.538;13.820;2024-01-15T04:22:41;11.93;;;5.78;;
44842;SDS011;31884;52.538;13.820;2024-01-15T04:25:06;12.30;;;5.38;;
44842;SDS011;31884;52.538;13.820;2024-01-15T04:27:32;8.82;;;5.50;;
44842;SDS011;31884;52.538;13.820;2024-01-15T04:29:58;13.00;;;5.35;;
44842;SDS011;31884;52.538;13.820;2024-01-15T04:32:23;13.52;;;5.50;;
44842;SDS011;31884;52.538;13.820;2024-01-15T04:34:48;16.90;;;5.70;;
44842;SDS011;31884;52.538;13.820;2024-01-15T04:37:14;13.30;;;5.20;;
44842;SDS011;31884;52.538;13.820;2024-01-15T04:39:39;11.63;;;5.03;;
44842;SDS011;31884;52.538;13.820;2024-01-15T04:42:05;10.38;;;4.25;;
44842;SDS011;31884;52.538;13.820;2024-01-15T04:44:30;11.90;;;5.18;;
44842;SDS011;31884;52.538;13.820;2024-01-15T04:46:56;9.90;;;4.55;;
44842;SDS011;31884;52.538;13.820;2024-01-15T04:49:21;9.07;;;4.38;;
44842;SDS011;31884;52.538;13.820;2024-01-15T04:51:47;9.13;;;4.05;;
44842;SDS011;31884;52.538;13.820;2024-01-15T04:54:12;11.68;;;4.07;;
44842;SDS011;31884;52.538;13.820;2024-01-15T04:56:42;12.25;;;5.20;;
44842;SDS011;31884;52.538;13.820;2024-01-15T04:59:08;10.13;;;3.70;;
44842;SDS011;31884;52.538;13.820;2024-01-15T05:01:33;11.57;;;4.15;;
44842;SDS011;31884;52.538;13.820;2024-01-15T05:03:59;12.00;;;4.65;;
44842;SDS011;31884;52.538;13.820;2024-01-15T05:06:24;13.20;;;4.25;;
44842;SDS011;31884;52.538;13.820;2024-01-15T05:08:50;9.95;;;3.83;;
44842;SDS011;31884;52.538;13.820;2024-01-15T05:11:15;7.60;;;3.95;;
44842;SDS011;31884;52.538;13.820;2024-01-15T05:13:41;11.85;;;4.70;;
44842;SDS011;31884;52.538;13.820;2024-01-15T05:16:06;13.18;;;3.92;;
44842;SDS011;31884;52.538;13.820;2024-01-15T05:18:32;8.63;;;3.40;;
44842;SDS011;31884;52.538;13.820;2024-01-15T05:20:58;9.88;;;3.55;;
44842;SDS011;31884;52.538;13.820;2024-01-15T05:23:23;9.70;;;3.92;;
44842;SDS011;31884;52.538;13.820;2024-01-15T05:25:48;11.68;;;3.53;;
44842;SDS011;31884;52.538;13.820;2024-01-15T05:28:14;8.15;;;3.47;;
44842;SDS011;31884;52.538;13.820;2024-01-15T05:30:40;7.40;;;3.47;;
44842;SDS011;31884;52.538;13.820;2024-01-15T05:33:05;6.07;;;3.03;;
44842;SDS011;31884;52.538;13.820;2024-01-15T05:35:32;9.20;;;3.70;;
44842;SDS011;31884;52.538;13.820;2024-01-15T05:37:58;9.88;;;3.78;;
44842;SDS011;31884;52.538;13.820;2024-01-15T05:40:23;7.90;;;2.78;;
44842;SDS011;31884;52.538;13.820;2024-01-15T05:42:49;9.15;;;3.53;;
44842;SDS011;31884;52.538;13.820;2024-01-15T05:45:14;7.13;;;3.25;;
44842;SDS011;31884;52.538;13.820;2024-01-15T05:47:40;9.57;;;2.60;;
44842;SDS011;31884;52.538;13.820;2024-01-15T05:50:05;8.48;;;3.22;;
44842;SDS011;31884;52.538;13.820;2024-01-15T05:52:31;12.68;;;3.13;;
44842;SDS011;31884;52.538;13.820;2024-01-15T05:54:57;9.45;;;3.83;;
44842;SDS011;31884;52.538;13.820;2024-01-15T05:57:22;7.22;;;2.60;;
44842;SDS011;31884;52.538;13.820;2024-01-15T05:59:48;10.80;;;3.38;;
44842;SDS011;31884;52.538;13.820;2024-01-15T06:02:14;7.45;;;2.60;;
44842;SDS011;31884;52.538;13.820;2024-01-15T06:04:40;4.50;;;2.50;;
44842;SDS011;31884;52.538;13.820;2024-01-15T06:07:05;10.02;;;3.55;;
44842;SDS011;31884;52.538;13.820;2024-01-15T06:09:31;10.90;;;2.78;;
44842;SDS011;31884;52.538;13.820;2024-01-15T06:11:56;6.15;;;2.72;;
44842;SDS011;31884;52.538;13.820;2024-01-15T06:14:22;5.68;;;2.85;;
44842;SDS011;31884;52.538;13.820;2024-01-15T06:16:47;8.20;;;2.78;;
44842;SDS011;31884;52.538;13.820;2024-01-15T06:19:14;5.53;;;2.22;;
44842;SDS011;31884;52.538;13.820;2024-01-15T06:21:39;9.88;;;2.83;;
44842;SDS011;31884;52.538;13.820;2024-01-15T06:24:05;8.20;;;3.47;;
44842;SDS011;31884;52.538;13.820;2024-01-15T06:26:30;4.63;;;2.03;;
44842;SDS011;31884;52.538;13.820;2024-01-15T06:28:56;8.40;;;2.65;;
44842;SDS011;31884;52.538;13.820;2024-01-15T06:31:21;9.18;;;2.47;;
44842;SDS011;31884;52.538;13.820;2024-01-15T06:33:47;7.55;;;2.15;;
44842;SDS011;31884;52.538;13.820;2024-01-15T06:36:13;7.38;;;2.85;;
44842;SDS011;31884;52.538;13.820;2024-01-15T06:38:41;10.90;;;3.83;;
44842;SDS011;31884;52.538;13.820;2024-01-15T06:41:07;10.70;;;2.45;;
44842;SDS011;31884;52.538;13.820;2024-01-15T06:43:33;11.80;;;2.58;;
44842;SDS011;31884;52.538;13.820;2024-01-15T06:45:59;11.60;;;2.15;;
44842;SDS011;31884;52.538;13.820;2024-01-15T06:48:24;5.72;;;2.10;;
44842;SDS011;31884;52.538;13.820;2024-01-15T06:50:50;5.45;;;2.08;;
44842;SDS011;31884;52.538;13.820;2024-01-15T06:53:15;5.88;;;1.95;;
44842;SDS011;31884;52.538;13.820;2024-01-15T06:55:41;5.53;;;1.95;;
44842;SDS011;31884;52.538;13.820;2024-01-15T06:58:06;6.53;;;1.70;;
44842;SDS011;31884;52.538;13.820;2024-01-15T07:00:32;6.95;;;1.98;;
44842;SDS011;31884;52.538;13.820;2024-01-15T07:02:58;10.10;;;2.53;;
44842;SDS011;31884;52.538;13.820;2024-01-15T07:05:23;9.82;;;1.88;;
44842;SDS011;31884;52.538;13.820;2024-01-15T07:07:49;12.23;;;2.38;;
44842;SDS011;31884;52.538;13.820;2024-01-15T07:10:16;11.93;;;1.95;;
44842;SDS011;31884;52.538;13.820;2024-01-15T07:12:42;7.82;;;1.88;;
44842;SDS011;31884;52.538;13.820;2024-01-15T07:15:08;8.95;;;2.67;;
44842;SDS011;31884;52.538;13.820;2024-01-15T07:17:34;7.05;;;2.20;;
44842;SDS011;31884;52.538;13.820;2024-01-15T07:20:00;7.20;;;1.75;;
44842;SDS011;31884;52.538;13.820;2024-01-15T07:22:26;9.00;;;2.22;;
44842;SDS011;31884;52.538;13.820;2024-01-15T07:24:51;11.32;;;2.08;;
44842;SDS011;31884;52.538;13.820;2024-01-15T07:27:17;4.63;;;1.83;;
44842;SDS011;31884;52.538;13.820;2024-01-15T07:29:43;9.27;;;2.03;;
44842;SDS011;31884;52.538;13.820;2024-01-15T07:32:08;13.15;;;2.10;;
44842;SDS011;31884;52.538;13.820;2024-01-15T07:34:35;4.45;;;1.92;;
44842;SDS011;31884;52.538;13.820;2024-01-15T07:37:00;13.77;;;2.97;;
44842;SDS011;31884;52.538;13.820;2024-01-15T07:39:26;8.65;;;1.60;;
44842;SDS011;31884;52.538;13.820;2024-01-15T07:41:53;5.80;;;1.55;;
44842;SDS011;31884;52.538;13.820;2024-01-15T07:44:19;6.03;;;1.70;;
44842;SDS011;31884;52.538;13.820;2024-01-15T07:46:45;7.38;;;1.67;;
44842;SDS011;31884;52.538;13.820;2024-01-15T07:49:11;9.80;;;2.28;;
44842;SDS011;31884;52.538;13.820;2024-01-15T07:51:37;5.82;;;2.08;;
44842;SDS011;31884;52.538;13.820;2024-01-15T07:54:02;10.52;;;2.22;;
44842;SDS011;31884;52.538;13.820;2024-01-15T07:56:28;7.40;;;1.88;;
44842;SDS011;31884;52.538;13.820;2024-01-15T07:58:54;7.65;;;1.60;;
44842;SDS011;31884;52.538;13.820;2024-01-15T08:01:19;9.32;;;2.38;;
44842;SDS011;31884;52.538;13.820;2024-01-15T08:03:44;7.10;;;2.30;;
44842;SDS011;31884;52.538;13.820;2024-01-15T08:06:10;5.57;;;1.90;;
44842;SDS011;31884;52.538;13.820;2024-01-15T08:08:36;12.20;;;2.50;;
44842;SDS011;31884;52.538;13.820;2024-01-15T08:11:02;9.43;;;2.47;;
44842;SDS011;31884;52.538;13.820;2024-01-15T08:13:27;15.02;;;2.92;;
44842;SDS011;31884;52.538;13.820;2024-01-15T08:15:53;10.15;;;2.10;;
44842;SDS011;31884;52.538;13.820;2024-01-15T08:18:18;9.50;;;2.60;;
44842;SDS011;31884;52.538;13.820;2024-01-15T08:20:46;14.38;;;2.60;;
44842;SDS011;31884;52.538;13.820;2024-01-15T08:23:12;8.13;;;1.80;;
44842;SDS011;31884;52.538;13.820;2024-01-15T08:25:37;11.38;;;2.42;;
44842;SDS011;31884;52.538;13.820;2024-01-15T08:28:03;6.50;;;2.00;;
44842;SDS011;31884;52.538;13.820;2024-01-15T08:30:28;11.02;;;2.42;;
44842;SDS011;31884;52.538;13.820;2024-01-15T08:32:54;13.70;;;2.55;;
44842;SDS011;31884;52.538;13.820;2024-01-15T08:35:20;8.07;;;2.28;;
44842;SDS011;31884;52.538;13.820;2024-01-15T08:37:51;22.67;;;2.58;;
44842;SDS011;31884;52.538;13.820;2024-01-15T08:40:17;13.43;;;2.30;;
44842;SDS011;31884;52.538;13.820;2024-01-15T08:42:43;15.45;;;2.25;;
44842;SDS011;31884;52.538;13.820;2024-01-15T08:45:08;12.73;;;2.15;;
44842;SDS011;31884;52.538;13.820;2024-01-15T08:47:34;12.82;;;1.92;;
44842;SDS011;31884;52.538;13.820;2024-01-15T08:50:00;15.18;;;2.70;;
44842;SDS011;31884;52.538;13.820;2024-01-15T08:52:26;6.97;;;1.85;;
44842;SDS011;31884;52.538;13.820;2024-01-15T08:54:52;8.55;;;2.45;;
44842;SDS011;31884;52.538;13.820;2024-01-15T08:57:17;8.98;;;1.75;;
44842;SDS011;31884;52.538;13.820;2024-01-15T08:59:43;13.90;;;2.28;;
44842;SDS011;31884;52.538;13.820;2024-01-15T09:02:08;10.77;;;1.98;;
44842;SDS011;31884;52.538;13.820;2024-01-15T09:04:34;7.47;;;2.17;;
44842;SDS011;31884;52.538;13.820;2024-01-15T09:06:59;5.95;;;2.28;;
44842;SDS011;31884;52.538;13.820;2024-01-15T09:09:25;5.40;;;1.75;;
44842;SDS011;31884;52.538;13.820;2024-01-15T09:11:51;9.18;;;2.00;;
44842;SDS011;31884;52.538;13.820;2024-01-15T09:14:17;8.85;;;2.22;;
44842;SDS011;31884;52.538;13.820;2024-01-15T09:16:42;9.57;;;2.22;;
44842;SDS011;31884;52.538;13.820;2024-01-15T09:19:08;5.95;;;1.45;;
44842;SDS011;31884;52.538;13.820;2024-01-15T09:21:33;8.13;;;2.38;;
44842;SDS011;31884;52.538;13.820;2024-01-15T09:23:59;10.95;;;2.00;;
44842;SDS011;31884;52.538;13.820;2024-01-15T09:26:24;8.57;;;2.00;;
44842;SDS011;31884;52.538;13.820;2024-01-15T09:28:50;7.22;;;1.67;;
44842;SDS011;31884;52.538;13.820;2024-01-15T09:31:16;6.78;;;2.03;;
44842;SDS011;31884;52.538;13.820;2024-01-15T09:33:42;9.23;;;1.65;;
44842;SDS011;31884;52.538;13.820;2024-01-15T09:36:09;6.88;;;2.40;;
44842;SDS011;31884;52.538;13.820;2024-01-15T09:38:34;10.07;;;2.00;;
44842;SDS011;31884;52.538;13.820;2024-01-15T09:41:00;4.38;;;1.73;;
44842;SDS011;31884;52.538;13.820;2024-01-15T09:43:25;8.52;;;2.10;;
44842;SDS011;31884;52.538;13.820;2024-01-15T09:45:51;7.70;;;1.80;;
44842;SDS011;31884;52.538;13.820;2024-01-15T09:48:18;6.78;;;1.90;;
44842;SDS011;31884;52.538;13.820;2024-01-15T09:50:44;8.00;;;2.08;;
44842;SDS011;31884;52.538;13.820;2024-01-15T09:53:10;10.60;;;1.92;;
44842;SDS011;31884;52.538;13.820;2024-01-15T09:55:36;4.70;;;1.80;;
44842;SDS011;31884;52.538;13.820;2024-01-15T09:58:05;4.57;;;1.80;;
44842;SDS011;31884;52.538;13.820;2024-01-15T10:00:31;6.70;;;1.50;;
44842;SDS011;31884;52.538;13.820;2024-01-15T10:02:58;5.57;;;1.40;;
44842;SDS011;31884;52.538;13.820;2024-01-15T10:05:27;10.13;;;2.20;;
44842;SDS011;31884;52.538;13.820;2024-01-15T10:07:53;9.40;;;2.22;;
44842;SDS011;31884;52.538;13.820;2024-01-15T10:10:21;6.82;;;1.77;;
44842;SDS011;31884;52.538;13.820;2024-01-15T10:12:47;8.73;;;2.15;;
44842;SDS011;31884;52.538;13.820;2024-01-15T10:15:14;6.60;;;1.65;;
44842;SDS011;31884;52.538;13.820;2024-01-15T10:17:39;6.57;;;1.55;;
44842;SDS011;31884;52.538;13.820;2024-01-15T10:20:09;5.65;;;1.88;;
44842;SDS011;31884;52.538;13.820;2024-01-15T10:22:35;7.80;;;1.50;;
44842;SDS011;31884;52.538;13.820;2024-01-15T10:25:04;6.90;;;1.55;;
44842;SDS011;31884;52.538;13.820;2024-01-15T10:27:30;6.57;;;1.60;;
44842;SDS011;31884;52.538;13.820;2024-01-15T10:29:58;9.90;;;2.05;;
44842;SDS011;31884;52.538;13.820;2024-01-15T10:32:24;5.93;;;1.60;;
44842;SDS011;31884;52.538;13.820;2024-01-15T10:34:50;6.00;;;1.45;;
44842;SDS011;31884;52.538;13.820;2024-01-15T10:37:17;5.80;;;1.38;;
44842;SDS011;31884;52.538;13.820;2024-01-15T10:39:43;8.57;;;1.70;;
44842;SDS011;31884;52.538;13.820;2024-01-15T10:42:09;5.85;;;1.92;;
44842;SDS011;31884;52.538;13.820;2024-01-15T10:44:34;9.85;;;1.70;;
44842;SDS011;31884;52.538;13.820;2024-01-15T10:47:00;5.75;;;1.77;;
44842;SDS011;31884;52.538;13.820;2024-01-15T10:49:26;6.03;;;1.40;;
44842;SDS011;31884;52.538;13.820;2024-01-15T10:51:53;4.10;;;1.35;;
44842;SDS011;31884;52.538;13.820;2024-01-15T10:54:19;3.17;;;1.38;;
44842;SDS011;31884;52.538;13.820;2024-01-15T10:56:46;8.98;;;1.75;;
44842;SDS011;31884;52.538;13.820;2024-01-15T10:59:12;8.90;;;2.10;;
44842;SDS011;31884;52.538;13.820;2024-01-15T11:01:38;10.55;;;2.28;;
44842;SDS011;31884;52.538;13.820;2024-01-15T11:04:04;6.65;;;2.03;;
44842;SDS011;31884;52.538;13.820;2024-01-15T11:06:41;7.00;;;1.40;;
44842;SDS011;31884;52.538;13.820;2024-01-15T11:09:09;7.70;;;1.40;;
44842;SDS011;31884;52.538;13.820;2024-01-15T11:11:44;7.00;;;1.90;;
44842;SDS011;31884;52.538;13.820;2024-01-15T11:14:26;4.07;;;1.63;;
44842;SDS011;31884;52.538;13.820;2024-01-15T11:17:03;5.13;;;1.73;;
44842;SDS011;31884;52.538;13.820;2024-01-15T11:19:43;8.48;;;1.45;;
44842;SDS011;31884;52.538;13.820;2024-01-15T11:22:10;7.35;;;1.90;;
44842;SDS011;31884;52.538;13.820;2024-01-15T11:24:54;4.70;;;1.20;;
44842;SDS011;31884;52.538;13.820;2024-01-15T11:27:39;7.75;;;1.63;;
44842;SDS011;31884;52.538;13.820;2024-01-15T11:30:09;5.95;;;1.80;;
44842;SDS011;31884;52.538;13.820;2024-01-15T11:32:38;4.13;;;1.50;;
44842;SDS011;31884;52.538;13.820;2024-01-15T11:35:07;3.70;;;1.63;;
44842;SDS011;31884;52.538;13.820;2024-01-15T11:43:02;5.75;;;1.35;;
44842;SDS011;31884;52.538;13.820;2024-01-15T11:45:29;8.85;;;1.40;;
44842;SDS011;31884;52.538;13.820;2024-01-15T11:50:27;2.90;;;1.02;;
44842;SDS011;31884;52.538;13.820;2024-01-15T11:53:02;2.28;;;1.20;;
44842;SDS011;31884;52.538;13.820;2024-01-15T11:55:35;2.47;;;0.88;;
44842;SDS011;31884;52.538;13.820;2024-01-15T11:58:10;4.38;;;0.95;;
44842;SDS011;31884;52.538;13.820;2024-01-15T12:00:50;5.07;;;0.80;;
44842;SDS011;31884;52.538;13.820;2024-01-15T12:03:17;3.13;;;1.08;;
44842;SDS011;31884;52.538;13.820;2024-01-15T12:05:45;2.78;;;1.10;;
44842;SDS011;31884;52.538;13.820;2024-01-15T12:08:10;3.67;;;1.08;;
44842;SDS011;31884;52.538;13.820;2024-01-15T12:10:40;4.35;;;1.00;;
44842;SDS011;31884;52.538;13.820;2024-01-15T12:13:13;9.05;;;1.20;;
44842;SDS011;31884;52.538;13.820;2024-01-15T12:15:39;3.05;;;1.25;;
44842;SDS011;31884;52.538;13.820;2024-01-15T12:18:08;8.43;;;1.83;;
44842;SDS011;31884;52.538;13.820;2024-01-15T12:20:35;3.42;;;1.35;;
44842;SDS011;31884;52.538;13.820;2024-01-15T12:23:01;4.93;;;1.15;;
44842;SDS011;31884;52.538;13.820;2024-01-15T12:25:35;3.60;;;1.15;;
44842;SDS011;31884;52.538;13.820;2024-01-15T12:28:01;3.42;;;1.15;;
44842;SDS011;31884;52.538;13.820;2024-01-15T12:30:27;3.20;;;1.40;;
44842;SDS011;31884;52.538;13.820;2024-01-15T12:32:54;3.30;;;1.13;;
44842;SDS011;31884;52.538;13.820;2024-01-15T12:35:20;3.17;;;1.35;;
44842;SDS011;31884;52.538;13.820;2024-01-15T12:37:45;3.28;;;1.05;;
44842;SDS011;31884;52.538;13.820;2024-01-15T12:40:12;2.75;;;1.10;;
44842;SDS011;31884;52.538;13.820;2024-01-15T12:42:39;1.85;;;1.20;;
44842;SDS011;31884;52.538;13.820;2024-01-15T12:45:05;2.45;;;1.15;;
44842;SDS011;31884;52.538;13.820;2024-01-15T12:47:31;1.40;;;1.00;;
44842;SDS011;31884;52.538;13.820;2024-01-15T12:49:57;2.85;;;1.20;;
44842;SDS011;31884;52.538;13.820;2024-01-15T12:52:26;3.22;;;1.63;;
44842;SDS011;31884;52.538;13.820;2024-01-15T12:54:52;2.70;;;1.35;;
44842;SDS011;31884;52.538;13.820;2024-01-15T12:57:18;2.17;;;1.20;;
44842;SDS011;31884;52.538;13.820;2024-01-15T12:59:44;4.38;;;1.88;;
44842;SDS011;31884;52.538;13.820;2024-01-15T13:02:10;4.60;;;1.88;;
44842;SDS011;31884;52.538;13.820;2024-01-15T13:04:36;4.47;;;1.52;;
44842;SDS011;31884;52.538;13.820;2024-01-15T13:07:02;4.13;;;1.45;;
44842;SDS011;31884;52.538;13.820;2024-01-15T13:09:28;2.67;;;1.35;;
44842;SDS011;31884;52.538;13.820;2024-01-15T13:11:54;1.90;;;1.30;;
44842;SDS011;31884;52.538;13.820;2024-01-15T13:14:20;3.67;;;1.40;;
44842;SDS011;31884;52.538;13.820;2024-01-15T13:16:46;1.42;;;1.10;;
44842;SDS011;31884;52.538;13.820;2024-01-15T13:19:11;1.75;;;0.95;;
44842;SDS011;31884;52.538;13.820;2024-01-15T13:21:38;1.52;;;0.95;;
44842;SDS011;31884;52.538;13.820;2024-01-15T13:24:04;2.10;;;1.02;;
44842;SDS011;31884;52.538;13.820;2024-01-15T13:26:31;4.15;;;1.15;;
44842;SDS011;31884;52.538;13.820;2024-01-15T13:28:57;2.58;;;1.00;;
44842;SDS011;31884;52.538;13.820;2024-01-15T13:31:24;2.38;;;0.93;;
44842;SDS011;31884;52.538;13.820;2024-01-15T13:33:49;2.35;;;1.20;;
44842;SDS011;31884;52.538;13.820;2024-01-15T13:36:15;3.95;;;0.93;;
44842;SDS011;31884;52.538;13.820;2024-01-15T13:38:40;5.80;;;0.95;;
44842;SDS011;31884;52.538;13.820;2024-01-15T13:41:07;3.10;;;1.33;;
44842;SDS011;31884;52.538;13.820;2024-01-15T13:43:33;2.90;;;1.50;;
44842;SDS011;31884;52.538;13.820;2024-01-15T13:45:59;2.58;;;0.98;;
44842;SDS011;31884;52.538;13.820;2024-01-15T13:48:25;1.25;;;1.10;;
44842;SDS011;31884;52.538;13.820;2024-01-15T13:50:51;1.60;;;1.10;;
44842;SDS011;31884;52.538;13.820;2024-01-15T13:53:17;1.80;;;1.00;;
44842;SDS011;31884;52.538;13.820;2024-01-15T13:55:44;1.05;;;0.95;;
44842;SDS011;31884;52.538;13.820;2024-01-15T13:58:09;1.70;;;0.68;;
44842;SDS011;31884;52.538;13.820;2024-01-15T14:00:35;4.35;;;1.13;;
44842;SDS011;31884;52.538;13.820;2024-01-15T14:03:00;1.27;;;0.80;;
44842;SDS011;31884;52.538;13.820;2024-01-15T14:05:26;1.48;;;1.02;;
44842;SDS011;31884;52.538;13.820;2024-01-15T14:07:51;2.50;;;0.80;;
44842;SDS011;31884;52.538;13.820;2024-01-15T14:10:17;2.92;;;1.48;;
44842;SDS011;31884;52.538;13.820;2024-01-15T14:12:42;4.03;;;1.25;;
44842;SDS011;31884;52.538;13.820;2024-01-15T14:15:08;5.45;;;1.63;;
44842;SDS011;31884;52.538;13.820;2024-01-15T14:17:34;2.30;;;1.30;;
44842;SDS011;31884;52.538;13.820;2024-01-15T14:19:59;2.00;;;1.15;;
44842;SDS011;31884;52.538;13.820;2024-01-15T14:22:25;1.92;;;0.82;;
44842;SDS011;31884;52.538;13.820;2024-01-15T14:24:50;2.45;;;1.00;;
44842;SDS011;31884;52.538;13.820;2024-01-15T14:27:16;2.80;;;1.20;;
44842;SDS011;31884;52.538;13.820;2024-01-15T14:29:41;3.40;;;1.33;;
44842;SDS011;31884;52.538;13.820;2024-01-15T14:32:07;3.05;;;0.88;;